METAR & TAF

RJTY 210556Z AUTO 13006KT 10SM CLR 11/M04 A2997 RMK AO2 SLP158 T01111042 10114 20037 56013 FZRANO $
RJTY 210456Z AUTO 10004KT 10SM CLR 11/M04 A2998 RMK AO2 SLP161 T01091044 FZRANO $
RJTY 210356Z AUTO 13004KT 10SM CLR 11/M03 A2998 RMK AO2 SLP160 T01111027 FZRANO $
RJTY 210256Z AUTO 00000KT 10SM FEW055 10/M03 A3001 RMK AO2 SLP171 T00971033 58019 FZRANO $
RJTY 210156Z AUTO 00000KT 10SM OVC055 08/M01 A3005 RMK AO2 SLP185 T00791014 FZRANO $

TAF RJTY 210500Z 2105/2211 VRB06KT 9999 SCT050 QNH2996INS
  BECMG 2200/2201 01006KT 8000 -RASN BKN010 610109 QNH3011INS
  BECMG 2202/2203 03009KT 4800 -SN OVC009 610099 QNH2994INS
  TEMPO 2207/2209 0800 SN BR TX11/2105Z TNM01/2204Z